Time,TemperatureF,DewpointF,PressureIn,WindDirection,WindDirectionDegrees,WindSpeedMPH,WindSpeedGustMPH,Humidity,HourlyPrecipIn,Conditions,Clouds,dailyrainin,SoftwareType,DateUTC
2013-03-05 00:02:00,20.0,12.3,30.33,SE,135,0.0,0.2,72,0.00,,,0.00,WUHU216HW,2013-03-05 07:02:00,
2013-03-05 00:07:00,19.8,12.2,30.33,SE,135,0.0,0.2,72,0.00,,,0.00,WUHU216HW,2013-03-05 07:07:00,
2013-03-05 00:12:00,19.8,12.2,30.34,SE,135,0.0,0.2,72,0.00,,,0.00,WUHU216HW,2013-03-05 07:12:00,
2013-03-05 00:17:00,19.8,12.2,30.34,SE,135,0.0,0.0,72,0.00,,,0.00,WUHU216HW,2013-03-05 07:17:00,
2013-03-05 00:22:00,19.8,12.2,30.33,SE,135,0.0,0.0,72,0.00,,,0.00,WUHU216HW,2013-03-05 07:22:00,
2013-03-05 00:27:00,19.4,11.8,30.34,SE,135,0.0,0.0,72,0.00,,,0.00,WUHU216HW,2013-03-05 07:27:00,
2013-03-05 00:32:00,19.3,11.6,30.34,SE,135,0.0,0.0,72,0.00,,,0.00,WUHU216HW,2013-03-05 07:32:00,
2013-03-05 00:37:00,19.1,11.4,30.34,SE,135,0.0,0.0,72,0.00,,,0.00,WUHU216HW,2013-03-05 07:37:00,
2013-03-05 00:42:00,19.1,11.4,30.34,SE,135,0.0,0.4,72,0.00,,,0.00,WUHU216HW,2013-03-05 07:42:00,
2013-03-05 00:47:00,18.9,11.3,30.34,SE,135,0.0,0.4,72,0.00,,,0.00,WUHU216HW,2013-03-05 07:47:00,
2013-03-05 00:52:00,18.9,11.3,30.34,SE,135,0.0,0.0,72,0.00,,,0.00,WUHU216HW,2013-03-05 07:52:00,
2013-03-05 01:00:00,19.1,11.4,30.34,SE,135,0.0,0.0,72,0.00,,,0.00,WUHU216HW,2013-03-05 08:00:00,
2013-03-05 01:05:00,19.1,11.4,30.35,SE,135,0.2,0.2,72,0.00,,,0.00,WUHU216HW,2013-03-05 08:05:00,
2013-03-05 01:10:00,19.1,11.4,30.35,SE,135,0.2,0.4,72,0.00,,,0.00,WUHU216HW,2013-03-05 08:10:00,
2013-03-05 01:15:00,19.1,11.4,30.35,SE,135,0.0,0.4,72,0.00,,,0.00,WUHU216HW,2013-03-05 08:15:00,
2013-03-05 01:20:00,19.1,11.4,30.35,SE,135,0.0,0.2,72,0.00,,,0.00,WUHU216HW,2013-03-05 08:20:00,
2013-03-05 01:25:00,18.7,11.1,30.35,SE,135,0.0,0.0,72,0.00,,,0.00,WUHU216HW,2013-03-05 08:25:00,
2013-03-05 01:30:00,18.5,11.0,30.35,SE,135,0.0,0.0,72,0.00,,,0.00,WUHU216HW,2013-03-05 08:30:00,
2013-03-05 01:35:00,18.4,10.4,30.35,SE,135,0.0,0.0,71,0.00,,,0.00,WUHU216HW,2013-03-05 08:35:00,
2013-03-05 01:40:00,18.0,10.2,30.35,SE,135,0.0,0.0,71,0.00,,,0.00,WUHU216HW,2013-03-05 08:40:00,
2013-03-05 01:45:00,17.6,9.8,30.35,SE,135,0.0,0.0,71,0.00,,,0.00,WUHU216HW,2013-03-05 08:45:00,
2013-03-05 01:50:00,17.3,9.5,30.35,SE,135,0.0,0.0,71,0.00,,,0.00,WUHU216HW,2013-03-05 08:50:00,
2013-03-05 01:55:00,16.9,9.5,30.35,SE,135,0.0,0.0,72,0.00,,,0.00,WUHU216HW,2013-03-05 08:55:00,
2013-03-05 02:00:00,16.9,9.5,30.35,SE,135,0.0,0.0,72,0.00,,,0.00,WUHU216HW,2013-03-05 09:00:00,
2013-03-05 02:05:00,16.7,9.6,30.35,SE,135,0.0,0.0,73,0.00,,,0.00,WUHU216HW,2013-03-05 09:05:00,
2013-03-05 02:10:00,16.6,9.4,30.34,SE,135,0.0,0.0,73,0.00,,,0.00,WUHU216HW,2013-03-05 09:10:00,
2013-03-05 02:15:00,16.4,9.2,30.35,SE,135,0.0,0.0,73,0.00,,,0.00,WUHU216HW,2013-03-05 09:15:00,
2013-03-05 02:20:00,16.2,9.3,30.34,SE,135,0.0,0.0,74,0.00,,,0.00,WUHU216HW,2013-03-05 09:20:00,
2013-03-05 02:25:00,16.2,9.3,30.34,SE,135,0.0,0.0,74,0.00,,,0.00,WUHU216HW,2013-03-05 09:25:00,
2013-03-05 02:30:00,16.2,9.3,30.34,SE,135,0.4,1.1,74,0.00,,,0.00,WUHU216HW,2013-03-05 09:30:00,
2013-03-05 02:35:00,16.6,10.0,30.34,SE,135,2.0,3.4,75,0.00,,,0.00,WUHU216HW,2013-03-05 09:35:00,
2013-03-05 02:40:00,16.7,9.8,30.34,SE,135,1.8,3.4,74,0.00,,,0.00,WUHU216HW,2013-03-05 09:40:00,
2013-03-05 02:45:00,16.9,10.0,30.33,SE,135,0.4,2.5,74,0.00,,,0.00,WUHU216HW,2013-03-05 09:45:00,
2013-03-05 02:50:00,16.9,10.0,30.34,SE,135,1.1,2.5,74,0.00,,,0.00,WUHU216HW,2013-03-05 09:50:00,
2013-03-05 02:55:00,16.9,10.0,30.34,SE,135,0.0,2.5,74,0.00,,,0.00,WUHU216HW,2013-03-05 09:55:00,
2013-03-05 03:00:00,16.9,10.0,30.34,SE,135,0.0,1.6,74,0.00,,,0.00,WUHU216HW,2013-03-05 10:00:00,
2013-03-05 03:05:00,16.7,9.6,30.34,SE,135,0.0,0.4,73,0.00,,,0.00,WUHU216HW,2013-03-05 10:05:00,
2013-03-05 03:10:00,16.6,9.4,30.34,SE,135,0.0,0.0,73,0.00,,,0.00,WUHU216HW,2013-03-05 10:10:00,
2013-03-05 03:15:00,16.4,9.2,30.33,SE,135,0.4,0.4,73,0.00,,,0.00,WUHU216HW,2013-03-05 10:15:00,
2013-03-05 03:20:00,16.4,9.5,30.33,SE,135,0.0,0.4,74,0.00,,,0.00,WUHU216HW,2013-03-05 10:20:00,
2013-03-05 03:25:00,16.4,9.2,30.33,SE,135,0.2,0.4,73,0.00,,,0.00,WUHU216HW,2013-03-05 10:25:00,
2013-03-05 03:30:00,16.2,9.0,30.33,SE,135,0.0,0.2,73,0.00,,,0.00,WUHU216HW,2013-03-05 10:30:00,
2013-03-05 03:35:00,16.0,8.8,30.33,SE,135,0.0,0.7,73,0.00,,,0.00,WUHU216HW,2013-03-05 10:35:00,
2013-03-05 03:40:00,15.8,8.6,30.34,SE,135,0.0,0.7,73,0.00,,,0.00,WUHU216HW,2013-03-05 10:40:00,
2013-03-05 03:45:00,15.7,8.8,30.33,SE,135,1.6,1.6,74,0.00,,,0.00,WUHU216HW,2013-03-05 10:45:00,
2013-03-05 03:50:00,15.7,8.8,30.34,SE,135,0.0,2.5,74,0.00,,,0.00,WUHU216HW,2013-03-05 10:50:00,
2013-03-05 03:55:00,15.7,8.8,30.34,SE,135,0.4,2.5,74,0.00,,,0.00,WUHU216HW,2013-03-05 10:55:00,
2013-03-05 04:00:00,15.7,8.8,30.34,SE,135,0.0,0.4,74,0.00,,,0.00,WUHU216HW,2013-03-05 11:00:00,
2013-03-05 04:05:00,15.5,8.7,30.34,SE,135,0.0,0.2,74,0.00,,,0.00,WUHU216HW,2013-03-05 11:05:00,
2013-03-05 04:10:00,15.5,8.7,30.34,SE,135,0.0,0.4,74,0.00,,,0.00,WUHU216HW,2013-03-05 11:10:00,
2013-03-05 04:15:00,15.5,8.7,30.34,SE,135,0.0,0.4,74,0.00,,,0.00,WUHU216HW,2013-03-05 11:15:00,
2013-03-05 04:20:00,15.5,8.7,30.34,SE,135,0.0,0.0,74,0.00,,,0.00,WUHU216HW,2013-03-05 11:20:00,
2013-03-05 04:25:00,15.3,8.5,30.34,SE,135,0.0,0.0,74,0.00,,,0.00,WUHU216HW,2013-03-05 11:25:00,
2013-03-05 04:30:00,15.1,8.6,30.34,SE,135,0.0,0.0,75,0.00,,,0.00,WUHU216HW,2013-03-05 11:30:00,
2013-03-05 04:35:00,14.9,8.4,30.35,SE,135,0.0,0.0,75,0.00,,,0.00,WUHU216HW,2013-03-05 11:35:00,
2013-03-05 04:40:00,14.8,8.3,30.35,SE,135,0.0,0.0,75,0.00,,,0.00,WUHU216HW,2013-03-05 11:40:00,
2013-03-05 04:45:00,14.4,7.9,30.35,SE,135,0.7,2.0,75,0.00,,,0.00,WUHU216HW,2013-03-05 11:45:00,
2013-03-05 04:50:00,14.0,7.6,30.35,SE,135,0.0,2.0,75,0.00,,,0.00,WUHU216HW,2013-03-05 11:50:00,
2013-03-05 04:55:00,14.0,7.6,30.35,SE,135,0.0,1.8,75,0.00,,,0.00,WUHU216HW,2013-03-05 11:55:00,
2013-03-05 05:00:00,13.9,7.4,30.35,SE,135,0.0,0.0,75,0.00,,,0.00,WUHU216HW,2013-03-05 12:00:00,
2013-03-05 05:05:00,13.7,7.5,30.35,SE,135,0.2,0.2,76,0.00,,,0.00,WUHU216HW,2013-03-05 12:05:00,
2013-03-05 05:10:00,13.5,7.3,30.35,SE,135,0.0,0.2,76,0.00,,,0.00,WUHU216HW,2013-03-05 12:10:00,
2013-03-05 05:15:00,13.3,7.4,30.35,SE,135,0.2,0.2,77,0.00,,,0.00,WUHU216HW,2013-03-05 12:15:00,
2013-03-05 05:20:00,13.0,6.8,30.35,SE,135,2.0,2.0,76,0.00,,,0.00,WUHU216HW,2013-03-05 12:20:00,
2013-03-05 05:25:00,12.6,6.4,30.35,SE,135,0.2,2.0,76,0.00,,,0.00,WUHU216HW,2013-03-05 12:25:00,
2013-03-05 05:30:00,12.6,6.4,30.35,SE,135,0.9,0.9,76,0.00,,,0.00,WUHU216HW,2013-03-05 12:30:00,
2013-03-05 05:35:00,12.4,6.5,30.35,SE,135,0.0,0.9,77,0.00,,,0.00,WUHU216HW,2013-03-05 12:35:00,
2013-03-05 05:40:00,12.4,6.2,30.35,SE,135,0.0,0.2,76,0.00,,,0.00,WUHU216HW,2013-03-05 12:40:00,
2013-03-05 05:45:00,12.2,6.0,30.35,SE,135,0.4,0.4,76,0.00,,,0.00,WUHU216HW,2013-03-05 12:45:00,
2013-03-05 05:50:00,12.2,6.0,30.35,SE,135,0.9,0.9,76,0.00,,,0.00,WUHU216HW,2013-03-05 12:50:00,
2013-03-05 05:55:00,12.1,6.5,30.35,SE,135,0.0,0.9,78,0.00,,,0.00,WUHU216HW,2013-03-05 12:55:00,
2013-03-05 06:00:00,12.1,6.5,30.36,SE,135,0.0,0.2,78,0.00,,,0.00,WUHU216HW,2013-03-05 13:00:00,
2013-03-05 06:05:00,12.2,6.7,30.35,SE,135,0.0,0.2,78,0.00,,,0.00,WUHU216HW,2013-03-05 13:05:00,
2013-03-05 06:10:00,12.2,6.7,30.35,SE,135,0.0,0.0,78,0.00,,,0.00,WUHU216HW,2013-03-05 13:10:00,
2013-03-05 06:15:00,12.1,6.1,30.35,SE,135,0.0,0.0,77,0.00,,,0.00,WUHU216HW,2013-03-05 13:15:00,
2013-03-05 06:20:00,11.9,5.9,30.35,SE,135,0.0,0.0,77,0.00,,,0.00,WUHU216HW,2013-03-05 13:20:00,
2013-03-05 06:25:00,11.9,5.9,30.35,SE,135,0.0,0.0,77,0.00,,,0.00,WUHU216HW,2013-03-05 13:25:00,
2013-03-05 06:30:00,11.9,5.9,30.35,SE,135,0.0,0.0,77,0.00,,,0.00,WUHU216HW,2013-03-05 13:30:00,
2013-03-05 06:35:00,11.9,5.9,30.35,SE,135,0.0,0.0,77,0.00,,,0.00,WUHU216HW,2013-03-05 13:35:00,
2013-03-05 06:40:00,11.9,5.9,30.35,SE,135,0.0,0.0,77,0.00,,,0.00,WUHU216HW,2013-03-05 13:40:00,
2013-03-05 06:45:00,11.9,6.3,30.36,SE,135,0.0,0.4,78,0.00,,,0.00,WUHU216HW,2013-03-05 13:45:00,
2013-03-05 06:49:00,11.9,6.3,30.36,SE,135,0.0,0.4,78,0.00,,,0.00,WUHU216HW,2013-03-05 13:49:00,
2013-03-05 06:55:00,12.1,6.8,30.35,SE,135,0.0,0.2,79,0.00,,,0.00,WUHU216HW,2013-03-05 13:55:00,
2013-03-05 07:00:00,12.4,7.4,30.36,SE,135,0.0,0.4,80,0.00,,,0.00,WUHU216HW,2013-03-05 14:00:00,
2013-03-05 07:04:00,12.6,7.3,30.36,SE,135,0.0,0.4,79,0.00,,,0.00,WUHU216HW,2013-03-05 14:04:00,
2013-03-05 07:09:00,13.0,7.7,30.36,SE,135,0.0,0.0,79,0.00,,,0.00,WUHU216HW,2013-03-05 14:09:00,
2013-03-05 07:14:00,13.3,8.0,30.36,SE,135,0.0,0.0,79,0.00,,,0.00,WUHU216HW,2013-03-05 14:14:00,
2013-03-05 07:19:00,13.7,8.4,30.35,SE,135,0.0,0.0,79,0.00,,,0.00,WUHU216HW,2013-03-05 14:19:00,
2013-03-05 07:24:00,14.0,8.5,30.36,SE,135,0.0,0.0,78,0.00,,,0.00,WUHU216HW,2013-03-05 14:24:00,
2013-03-05 07:29:00,14.6,8.9,30.35,SE,135,0.0,0.2,78,0.00,,,0.00,WUHU216HW,2013-03-05 14:29:00,
2013-03-05 07:34:00,15.3,9.6,30.36,SE,135,0.2,0.2,78,0.00,,,0.00,WUHU216HW,2013-03-05 14:34:00,
2013-03-05 07:39:00,16.0,10.6,30.35,SE,135,0.0,0.4,79,0.00,,,0.00,WUHU216HW,2013-03-05 14:39:00,
2013-03-05 07:44:00,16.7,11.0,30.36,SE,135,0.0,0.4,78,0.00,,,0.00,WUHU216HW,2013-03-05 14:44:00,
2013-03-05 07:49:00,17.5,11.7,30.36,SE,135,0.0,0.4,78,0.00,,,0.00,WUHU216HW,2013-03-05 14:49:00,
2013-03-05 07:54:00,18.2,12.1,30.36,SE,135,0.0,0.4,77,0.00,,,0.00,WUHU216HW,2013-03-05 14:54:00,
2013-03-05 07:59:00,18.7,12.3,30.36,SE,135,0.0,0.4,76,0.00,,,0.00,WUHU216HW,2013-03-05 14:59:00,
2013-03-05 08:04:00,19.1,12.3,30.36,SE,135,0.4,0.4,75,0.00,,,0.00,WUHU216HW,2013-03-05 15:04:00,
2013-03-05 08:09:00,20.0,13.2,30.36,SE,135,0.0,0.4,75,0.00,,,0.00,WUHU216HW,2013-03-05 15:09:00,
2013-03-05 08:14:00,20.9,14.1,30.36,SE,135,0.2,1.3,75,0.00,,,0.00,WUHU216HW,2013-03-05 15:14:00,
2013-03-05 08:19:00,21.6,14.9,30.36,SE,135,0.2,1.3,75,0.00,,,0.00,WUHU216HW,2013-03-05 15:19:00,
2013-03-05 08:24:00,22.1,14.8,30.36,SE,135,0.2,1.6,73,0.00,,,0.00,WUHU216HW,2013-03-05 15:24:00,
2013-03-05 08:29:00,22.7,14.7,30.36,SE,135,0.4,1.6,71,0.00,,,0.00,WUHU216HW,2013-03-05 15:29:00,
2013-03-05 08:34:00,23.6,15.8,30.36,SE,135,0.0,0.9,72,0.01,,,0.00,WUHU216HW,2013-03-05 15:34:00,
2013-03-05 08:39:00,24.7,16.6,30.37,SE,135,0.2,0.7,71,0.01,,,0.00,WUHU216HW,2013-03-05 15:39:00,
2013-03-05 08:44:00,25.7,17.6,30.37,SE,135,0.0,0.7,71,0.01,,,0.00,WUHU216HW,2013-03-05 15:44:00,
2013-03-05 08:49:00,26.6,18.2,30.37,SE,135,1.1,1.1,70,0.01,,,0.00,WUHU216HW,2013-03-05 15:49:00,
2013-03-05 08:54:00,27.7,19.3,30.37,SE,135,0.4,1.1,70,0.02,,,0.02,WUHU216HW,2013-03-05 15:54:00,
2013-03-05 08:59:00,28.3,19.4,30.37,SE,135,0.2,0.4,69,0.02,,,0.02,WUHU216HW,2013-03-05 15:59:00,
2013-03-05 09:04:00,29.0,19.7,30.37,SE,135,0.0,0.4,68,0.02,,,0.02,WUHU216HW,2013-03-05 16:04:00,
2013-03-05 09:09:00,29.5,19.5,30.37,SE,135,0.0,1.3,66,0.02,,,0.02,WUHU216HW,2013-03-05 16:09:00,
2013-03-05 09:14:00,29.7,19.7,30.37,SE,135,0.0,1.3,66,0.02,,,0.02,WUHU216HW,2013-03-05 16:14:00,
2013-03-05 09:19:00,30.1,19.6,30.36,SE,135,0.9,1.6,65,0.03,,,0.03,WUHU216HW,2013-03-05 16:19:00,
2013-03-05 09:24:00,30.6,19.4,30.37,SE,135,0.0,1.6,63,0.03,,,0.03,WUHU216HW,2013-03-05 16:24:00,
2013-03-05 09:29:00,31.3,20.2,30.36,SE,135,0.0,0.4,63,0.03,,,0.03,WUHU216HW,2013-03-05 16:29:00,
2013-03-05 09:34:00,31.3,19.4,30.36,SE,135,0.0,0.4,61,0.02,,,0.03,WUHU216HW,2013-03-05 16:34:00,
2013-03-05 09:39:00,31.7,19.8,30.36,SE,135,0.0,0.7,61,0.02,,,0.03,WUHU216HW,2013-03-05 16:39:00,
2013-03-05 09:44:00,31.9,19.6,30.36,North,0,0.0,0.7,60,0.02,,,0.03,WUHU216HW,2013-03-05 16:44:00,
2013-03-05 09:49:00,32.0,18.6,30.36,North,0,0.0,0.4,57,0.02,,,0.03,WUHU216HW,2013-03-05 16:49:00,
2013-03-05 09:54:00,31.5,17.6,30.36,North,0,0.0,0.4,56,0.02,,,0.04,WUHU216HW,2013-03-05 16:54:00,
2013-03-05 09:59:00,30.8,16.8,30.36,North,0,0.4,0.4,56,0.02,,,0.04,WUHU216HW,2013-03-05 16:59:00,
2013-03-05 10:04:00,30.4,16.6,30.36,North,0,0.0,0.4,56,0.02,,,0.04,WUHU216HW,2013-03-05 17:04:00,
2013-03-05 10:09:00,30.2,16.4,30.36,North,0,0.0,0.4,56,0.03,,,0.04,WUHU216HW,2013-03-05 17:09:00,
2013-03-05 10:14:00,30.8,17.7,30.36,NNW,338,0.0,0.9,58,0.03,,,0.05,WUHU216HW,2013-03-05 17:14:00,
2013-03-05 10:19:00,31.1,17.7,30.36,North,0,0.2,0.9,57,0.02,,,0.05,WUHU216HW,2013-03-05 17:19:00,
2013-03-05 10:24:00,31.5,17.6,30.36,North,0,0.0,0.4,56,0.03,,,0.06,WUHU216HW,2013-03-05 17:24:00,
2013-03-05 10:29:00,31.5,17.6,30.36,North,0,0.0,0.4,56,0.03,,,0.06,WUHU216HW,2013-03-05 17:29:00,
2013-03-05 10:34:00,31.7,16.8,30.36,North,0,0.2,0.4,54,0.03,,,0.06,WUHU216HW,2013-03-05 17:34:00,
2013-03-05 10:39:00,31.3,17.8,30.36,North,0,0.4,0.4,57,0.03,,,0.06,WUHU216HW,2013-03-05 17:39:00,
2013-03-05 10:44:00,30.8,16.5,30.36,North,0,0.2,0.9,55,0.03,,,0.06,WUHU216HW,2013-03-05 17:44:00,
2013-03-05 10:49:00,30.6,16.3,30.36,NNW,338,0.0,1.1,55,0.02,,,0.06,WUHU216HW,2013-03-05 17:49:00,
2013-03-05 10:54:00,31.1,18.1,30.36,NNE,23,0.4,1.6,58,0.02,,,0.06,WUHU216HW,2013-03-05 17:54:00,
2013-03-05 10:59:00,31.3,16.9,30.36,North,0,0.0,1.6,55,0.02,,,0.06,WUHU216HW,2013-03-05 17:59:00,
2013-03-05 11:04:00,31.5,18.5,30.36,NE,45,0.0,0.4,58,0.02,,,0.06,WUHU216HW,2013-03-05 18:04:00,
2013-03-05 11:09:00,32.6,20.3,30.36,NE,45,0.9,0.9,60,0.01,,,0.06,WUHU216HW,2013-03-05 18:09:00,
2013-03-05 11:14:00,33.1,19.9,30.36,ENE,68,0.0,0.9,58,0.01,,,0.06,WUHU216HW,2013-03-05 18:14:00,
2013-03-05 11:19:00,33.5,19.8,30.36,NNW,338,0.0,0.9,57,0.01,,,0.06,WUHU216HW,2013-03-05 18:19:00,
2013-03-05 11:24:00,32.8,18.7,30.36,North,0,0.0,1.6,56,0.00,,,0.06,WUHU216HW,2013-03-05 18:24:00,
2013-03-05 11:29:00,32.8,18.7,30.36,NE,45,0.9,1.6,56,0.00,,,0.06,WUHU216HW,2013-03-05 18:29:00,
2013-03-05 11:34:00,32.4,18.4,30.36,North,0,0.2,0.9,56,0.00,,,0.06,WUHU216HW,2013-03-05 18:34:00,
2013-03-05 11:39:00,32.6,18.5,30.36,NE,45,1.1,1.1,56,0.00,,,0.06,WUHU216HW,2013-03-05 18:39:00,
2013-03-05 11:44:00,32.9,19.4,30.35,NE,45,0.9,1.1,57,0.01,,,0.07,WUHU216HW,2013-03-05 18:44:00,
2013-03-05 11:49:00,33.3,19.2,30.36,North,0,0.2,1.1,56,0.01,,,0.07,WUHU216HW,2013-03-05 18:49:00,
2013-03-05 11:54:00,33.7,19.5,30.35,ENE,68,1.3,1.3,56,0.01,,,0.07,WUHU216HW,2013-03-05 18:54:00,
2013-03-05 11:59:00,34.0,19.9,30.35,NNW,338,0.2,1.3,56,0.01,,,0.07,WUHU216HW,2013-03-05 18:59:00,
2013-03-05 12:05:00,33.7,18.3,30.35,NE,45,0.7,1.1,53,0.01,,,0.07,WUHU216HW,2013-03-05 19:05:00,
2013-03-05 12:10:00,33.5,18.6,30.35,North,0,0.0,1.1,54,0.01,,,0.07,WUHU216HW,2013-03-05 19:10:00,
2013-03-05 12:15:00,33.8,19.7,30.35,ENE,68,0.7,1.1,56,0.01,,,0.07,WUHU216HW,2013-03-05 19:15:00,
2013-03-05 12:20:00,34.2,20.1,30.34,North,0,0.2,1.1,56,0.01,,,0.07,WUHU216HW,2013-03-05 19:20:00,
2013-03-05 12:25:00,34.6,19.5,30.35,North,0,0.4,1.3,54,0.01,,,0.07,WUHU216HW,2013-03-05 19:25:00,
2013-03-05 12:29:00,34.9,20.3,30.34,NNE,23,0.0,1.3,55,0.01,,,0.07,WUHU216HW,2013-03-05 19:29:00,
2013-03-05 12:34:00,35.1,18.4,30.34,NNW,338,0.2,1.1,50,0.01,,,0.07,WUHU216HW,2013-03-05 19:34:00,
2013-03-05 12:39:00,34.7,18.9,30.34,North,0,0.4,1.1,52,0.01,,,0.07,WUHU216HW,2013-03-05 19:39:00,
2013-03-05 12:44:00,34.9,19.4,30.34,North,0,0.0,0.9,53,0.00,,,0.07,WUHU216HW,2013-03-05 19:44:00,
2013-03-05 12:49:00,35.5,20.0,30.34,North,0,0.0,1.8,53,0.00,,,0.07,WUHU216HW,2013-03-05 19:49:00,
2013-03-05 12:54:00,36.0,19.6,30.33,North,0,0.2,1.8,51,0.00,,,0.07,WUHU216HW,2013-03-05 19:54:00,
2013-03-05 12:59:00,37.1,21.5,30.33,NE,45,1.8,1.8,53,0.00,,,0.07,WUHU216HW,2013-03-05 19:59:00,
2013-03-05 13:04:00,38.2,22.5,30.33,ENE,68,1.8,1.8,53,0.00,,,0.07,WUHU216HW,2013-03-05 20:04:00,
2013-03-05 13:09:00,38.5,21.5,30.33,North,0,0.0,1.8,50,0.00,,,0.07,WUHU216HW,2013-03-05 20:09:00,
2013-03-05 13:14:00,39.6,22.9,30.33,ENE,68,0.4,1.1,51,0.00,,,0.07,WUHU216HW,2013-03-05 20:14:00,
2013-03-05 13:19:00,40.7,23.4,30.32,NNW,338,1.1,1.1,50,0.00,,,0.07,WUHU216HW,2013-03-05 20:19:00,
2013-03-05 13:24:00,41.4,22.5,30.32,North,0,0.4,1.1,47,0.00,,,0.07,WUHU216HW,2013-03-05 20:24:00,
2013-03-05 13:29:00,41.8,22.9,30.32,North,0,0.0,1.1,47,0.00,,,0.07,WUHU216HW,2013-03-05 20:29:00,
2013-03-05 13:34:00,42.5,23.6,30.31,WSW,248,1.3,1.3,47,0.00,,,0.07,WUHU216HW,2013-03-05 20:34:00,
2013-03-05 13:39:00,44.6,24.5,30.31,North,0,0.0,1.3,45,0.00,,,0.07,WUHU216HW,2013-03-05 20:39:00,
2013-03-05 13:44:00,45.7,24.4,30.31,NW,315,0.0,2.7,43,0.00,,,0.07,WUHU216HW,2013-03-05 20:44:00,
2013-03-05 13:49:00,46.4,25.6,30.31,NNW,338,0.7,2.7,44,0.00,,,0.07,WUHU216HW,2013-03-05 20:49:00,
2013-03-05 13:54:00,45.9,23.0,30.31,NNW,338,1.1,1.1,40,0.00,,,0.07,WUHU216HW,2013-03-05 20:54:00,
2013-03-05 14:00:00,46.3,23.2,30.31,North,0,0.2,1.1,40,0.00,,,0.07,WUHU216HW,2013-03-05 21:00:00,
2013-03-05 14:04:00,46.8,24.3,30.31,NNE,23,0.0,0.9,41,0.00,,,0.07,WUHU216HW,2013-03-05 21:04:00,
2013-03-05 14:09:00,48.2,26.1,30.30,ENE,68,0.4,1.1,42,0.00,,,0.07,WUHU216HW,2013-03-05 21:09:00,
2013-03-05 14:14:00,52.2,29.7,30.30,East,90,0.9,1.1,42,0.00,,,0.07,WUHU216HW,2013-03-05 21:14:00,
2013-03-05 14:19:00,54.2,29.0,30.30,East,90,0.9,1.1,38,0.00,,,0.07,WUHU216HW,2013-03-05 21:19:00,
2013-03-05 14:24:00,54.0,25.4,30.31,North,0,0.7,1.1,33,0.00,,,0.07,WUHU216HW,2013-03-05 21:24:00,
2013-03-05 14:29:00,54.4,27.7,30.30,NE,45,0.0,1.1,36,0.00,,,0.07,WUHU216HW,2013-03-05 21:29:00,
2013-03-05 14:34:00,56.9,30.0,30.30,North,0,0.4,1.1,36,0.00,,,0.07,WUHU216HW,2013-03-05 21:34:00,
2013-03-05 14:39:00,59.2,30.0,30.30,NE,45,0.0,0.9,33,0.00,,,0.07,WUHU216HW,2013-03-05 21:39:00,
2013-03-05 14:45:00,60.3,30.2,30.30,NE,45,2.2,2.2,32,0.00,,,0.07,WUHU216HW,2013-03-05 21:45:00,
2013-03-05 14:49:00,60.8,29.2,30.30,NE,45,0.2,2.2,30,0.00,,,0.07,WUHU216HW,2013-03-05 21:49:00,
2013-03-05 14:54:00,61.2,30.3,30.30,NNE,23,0.2,1.1,31,0.00,,,0.07,WUHU216HW,2013-03-05 21:54:00,
2013-03-05 14:59:00,62.3,29.5,30.30,NNW,338,0.0,1.8,29,0.00,,,0.07,WUHU216HW,2013-03-05 21:59:00,
2013-03-05 15:04:00,63.4,29.4,30.30,ENE,68,1.1,1.8,28,0.00,,,0.07,WUHU216HW,2013-03-05 22:04:00,
2013-03-05 15:09:00,63.2,26.4,30.30,North,0,0.7,3.1,25,0.00,,,0.07,WUHU216HW,2013-03-05 22:09:00,
2013-03-05 15:14:00,62.5,24.9,30.30,NNW,338,0.0,3.1,24,0.00,,,0.07,WUHU216HW,2013-03-05 22:14:00,
2013-03-05 15:19:00,62.3,27.5,30.30,North,0,0.0,1.1,27,0.00,,,0.07,WUHU216HW,2013-03-05 22:19:00,
2013-03-05 15:24:00,64.6,30.6,30.30,NNE,23,0.0,1.1,28,0.00,,,0.07,WUHU216HW,2013-03-05 22:24:00,
2013-03-05 15:30:00,65.9,29.7,30.30,North,0,0.0,1.1,26,0.00,,,0.07,WUHU216HW,2013-03-05 22:30:00,
2013-03-05 15:35:00,65.2,26.1,30.30,NNW,338,0.0,0.2,23,0.00,,,0.07,WUHU216HW,2013-03-05 22:35:00,
2013-03-05 15:40:00,64.8,26.7,30.30,NNW,338,0.0,0.9,24,0.00,,,0.07,WUHU216HW,2013-03-05 22:40:00,
2013-03-05 15:45:00,64.1,27.2,30.30,NE,45,0.4,1.6,25,0.00,,,0.07,WUHU216HW,2013-03-05 22:45:00,
2013-03-05 15:50:00,66.1,28.8,30.30,South,180,1.3,1.6,25,0.00,,,0.07,WUHU216HW,2013-03-05 22:50:00,
2013-03-05 15:55:00,68.4,29.8,30.30,SE,135,0.0,1.8,24,0.00,,,0.07,WUHU216HW,2013-03-05 22:55:00,
2013-03-05 16:00:00,69.1,29.4,30.29,East,90,0.0,1.8,23,0.00,,,0.07,WUHU216HW,2013-03-05 23:00:00,
2013-03-05 16:05:00,68.8,29.2,30.29,NNE,23,0.0,1.3,23,0.00,,,0.07,WUHU216HW,2013-03-05 23:05:00,
2013-03-05 16:10:00,67.7,28.3,30.29,North,0,0.0,1.3,23,0.00,,,0.07,WUHU216HW,2013-03-05 23:10:00,
2013-03-05 16:15:00,67.3,27.9,30.29,ENE,68,0.0,0.7,23,0.00,,,0.07,WUHU216HW,2013-03-05 23:15:00,
2013-03-05 16:20:00,66.2,27.0,30.29,NE,45,0.0,0.7,23,0.00,,,0.07,WUHU216HW,2013-03-05 23:20:00,
2013-03-05 16:25:00,65.3,26.2,30.29,NNE,23,0.0,0.4,23,0.00,,,0.07,WUHU216HW,2013-03-05 23:25:00,
2013-03-05 16:30:00,62.6,23.9,30.29,North,0,0.4,0.4,23,0.00,,,0.07,WUHU216HW,2013-03-05 23:30:00,
2013-03-05 16:35:00,59.0,21.9,30.29,North,0,0.0,0.4,24,0.00,,,0.07,WUHU216HW,2013-03-05 23:35:00,
2013-03-05 16:40:00,55.4,21.7,30.29,North,0,0.2,0.7,27,0.00,,,0.07,WUHU216HW,2013-03-05 23:40:00,
2013-03-05 16:45:00,52.9,20.5,30.29,North,0,0.0,0.7,28,0.00,,,0.07,WUHU216HW,2013-03-05 23:45:00,
2013-03-05 16:50:00,50.8,20.4,30.29,North,0,0.0,0.7,30,0.00,,,0.07,WUHU216HW,2013-03-05 23:50:00,
2013-03-05 16:55:00,49.0,20.3,30.29,WNW,293,1.3,1.3,32,0.00,,,0.07,WUHU216HW,2013-03-05 23:55:00,
2013-03-05 17:00:00,47.0,19.9,30.29,North,0,0.0,1.3,34,0.00,,,0.07,WUHU216HW,2013-03-06 00:00:00,
2013-03-05 17:05:00,46.6,18.9,30.29,North,0,0.0,0.4,33,0.00,,,0.07,WUHU216HW,2013-03-06 00:05:00,
2013-03-05 17:10:00,45.9,19.6,30.29,NNE,23,0.0,1.8,35,0.00,,,0.07,WUHU216HW,2013-03-06 00:10:00,
2013-03-05 17:15:00,44.5,19.0,30.29,NNE,23,0.0,1.8,36,0.00,,,0.07,WUHU216HW,2013-03-06 00:15:00,
2013-03-05 17:20:00,43.7,19.0,30.29,NNE,23,0.0,0.0,37,0.00,,,0.07,WUHU216HW,2013-03-06 00:20:00,
2013-03-05 17:25:00,43.2,19.2,30.29,NNE,23,0.0,0.0,38,0.00,,,0.07,WUHU216HW,2013-03-06 00:25:00,
2013-03-05 17:30:00,42.7,19.4,30.29,NNW,338,1.3,1.3,39,0.00,,,0.07,WUHU216HW,2013-03-06 00:30:00,
2013-03-05 17:35:00,41.9,18.7,30.29,WNW,293,0.0,1.8,39,0.00,,,0.07,WUHU216HW,2013-03-06 00:35:00,
2013-03-05 17:40:00,41.4,18.9,30.29,WNW,293,0.0,1.8,40,0.00,,,0.07,WUHU216HW,2013-03-06 00:40:00,
2013-03-05 17:45:00,41.0,20.1,30.29,WNW,293,0.2,0.2,43,0.00,,,0.07,WUHU216HW,2013-03-06 00:45:00,
2013-03-05 17:50:00,40.5,19.1,30.29,WNW,293,0.0,0.2,42,0.00,,,0.07,WUHU216HW,2013-03-06 00:50:00,
2013-03-05 17:55:00,40.0,19.2,30.29,WNW,293,0.0,0.0,43,0.00,,,0.07,WUHU216HW,2013-03-06 00:55:00,
2013-03-05 18:00:00,39.2,18.5,30.29,WNW,293,0.0,0.0,43,0.00,,,0.07,WUHU216HW,2013-03-06 01:00:00,
2013-03-05 18:05:00,38.5,18.9,30.29,WNW,293,0.0,0.0,45,0.00,,,0.07,WUHU216HW,2013-03-06 01:05:00,
2013-03-05 18:10:00,38.2,18.5,30.29,WNW,293,0.0,0.0,45,0.00,,,0.07,WUHU216HW,2013-03-06 01:10:00,
2013-03-05 18:15:00,37.6,18.1,30.29,WNW,293,0.0,0.0,45,0.00,,,0.07,WUHU216HW,2013-03-06 01:15:00,
2013-03-05 18:20:00,37.1,17.6,30.29,WNW,293,0.0,0.0,45,0.00,,,0.07,WUHU216HW,2013-03-06 01:20:00,
2013-03-05 18:25:00,36.7,17.8,30.29,WNW,293,0.0,0.0,46,0.00,,,0.07,WUHU216HW,2013-03-06 01:25:00,
2013-03-05 18:30:00,36.2,17.8,30.29,WNW,293,0.0,0.0,47,0.00,,,0.07,WUHU216HW,2013-03-06 01:30:00,
2013-03-05 18:35:00,35.8,18.0,30.29,WNW,293,0.0,0.0,48,0.00,,,0.07,WUHU216HW,2013-03-06 01:35:00,
2013-03-05 18:40:00,35.5,18.2,30.29,WNW,293,0.0,0.0,49,0.00,,,0.07,WUHU216HW,2013-03-06 01:40:00,
2013-03-05 18:45:00,34.9,18.6,30.29,WNW,293,0.0,0.0,51,0.00,,,0.07,WUHU216HW,2013-03-06 01:45:00,
2013-03-05 18:50:00,34.7,18.9,30.29,WNW,293,0.0,0.0,52,0.00,,,0.07,WUHU216HW,2013-03-06 01:50:00,
2013-03-05 18:55:00,34.2,18.4,30.29,WNW,293,0.0,0.0,52,0.00,,,0.07,WUHU216HW,2013-03-06 01:55:00,
2013-03-05 19:00:00,34.0,18.5,30.29,WNW,293,0.0,0.0,53,0.00,,,0.07,WUHU216HW,2013-03-06 02:00:00,
2013-03-05 19:05:00,33.7,18.6,30.29,WNW,293,0.0,0.0,54,0.00,,,0.07,WUHU216HW,2013-03-06 02:05:00,
2013-03-05 19:10:00,33.3,17.9,30.29,WNW,293,0.0,0.0,53,0.00,,,0.07,WUHU216HW,2013-03-06 02:10:00,
2013-03-05 19:15:00,32.9,18.9,30.29,WNW,293,0.2,0.7,56,0.00,,,0.07,WUHU216HW,2013-03-06 02:15:00,
2013-03-05 19:20:00,32.6,18.5,30.29,WNW,293,0.0,0.7,56,0.00,,,0.07,WUHU216HW,2013-03-06 02:20:00,
2013-03-05 19:25:00,32.2,18.6,30.29,WNW,293,0.0,0.0,57,0.00,,,0.07,WUHU216HW,2013-03-06 02:25:00,
2013-03-05 19:30:00,32.0,18.6,30.28,WNW,293,0.0,0.0,57,0.00,,,0.07,WUHU216HW,2013-03-06 02:30:00,
2013-03-05 19:35:00,31.7,20.2,30.28,WNW,293,0.7,0.9,62,0.00,,,0.07,WUHU216HW,2013-03-06 02:35:00,
2013-03-05 19:40:00,31.3,19.4,30.28,WNW,293,0.0,1.1,61,0.00,,,0.07,WUHU216HW,2013-03-06 02:40:00,
2013-03-05 19:45:00,31.0,19.1,30.29,WNW,293,0.0,1.1,61,0.00,,,0.07,WUHU216HW,2013-03-06 02:45:00,
2013-03-05 19:50:00,30.6,19.4,30.28,WNW,293,0.9,0.9,63,0.00,,,0.07,WUHU216HW,2013-03-06 02:50:00,
2013-03-05 19:55:00,30.4,19.3,30.28,WNW,293,0.0,1.1,63,0.00,,,0.07,WUHU216HW,2013-03-06 02:55:00,
2013-03-05 20:00:00,30.2,19.1,30.28,WNW,293,0.0,1.1,63,0.00,,,0.07,WUHU216HW,2013-03-06 03:00:00,
2013-03-05 20:05:00,30.1,18.5,30.28,WNW,293,0.0,0.0,62,0.00,,,0.07,WUHU216HW,2013-03-06 03:05:00,
2013-03-05 20:10:00,29.7,19.7,30.28,WNW,293,0.0,0.0,66,0.00,,,0.07,WUHU216HW,2013-03-06 03:10:00,
2013-03-05 20:15:00,29.3,19.4,30.28,WNW,293,0.0,0.7,66,0.00,,,0.07,WUHU216HW,2013-03-06 03:15:00,
2013-03-05 20:20:00,29.2,18.5,30.28,WNW,293,0.0,0.7,64,0.00,,,0.07,WUHU216HW,2013-03-06 03:20:00,
2013-03-05 20:25:00,29.0,17.6,30.28,WNW,293,0.0,0.0,62,0.00,,,0.07,WUHU216HW,2013-03-06 03:25:00,
2013-03-05 20:30:00,28.8,17.5,30.28,WNW,293,0.0,0.0,62,0.00,,,0.07,WUHU216HW,2013-03-06 03:30:00,
2013-03-05 20:35:00,28.4,17.5,30.28,WNW,293,0.0,0.4,63,0.00,,,0.07,WUHU216HW,2013-03-06 03:35:00,
2013-03-05 20:40:00,28.3,18.0,30.29,WNW,293,0.0,0.4,65,0.00,,,0.07,WUHU216HW,2013-03-06 03:40:00,
2013-03-05 20:45:00,28.1,17.8,30.28,WNW,293,0.0,0.4,65,0.00,,,0.07,WUHU216HW,2013-03-06 03:45:00,
2013-03-05 20:50:00,27.7,16.7,30.28,WNW,293,0.0,0.4,63,0.00,,,0.07,WUHU216HW,2013-03-06 03:50:00,
2013-03-05 20:55:00,27.5,17.3,30.28,WNW,293,0.0,0.0,65,0.00,,,0.07,WUHU216HW,2013-03-06 03:55:00,
2013-03-05 21:00:00,27.4,17.5,30.29,WNW,293,1.1,1.1,66,0.00,,,0.07,WUHU216HW,2013-03-06 04:00:00,
2013-03-05 21:05:00,27.2,18.7,30.29,WNW,293,0.4,2.2,70,0.00,,,0.07,WUHU216HW,2013-03-06 04:05:00,
2013-03-05 21:10:00,27.0,18.2,30.28,WNW,293,1.1,2.2,69,0.00,,,0.07,WUHU216HW,2013-03-06 04:10:00,
2013-03-05 21:15:00,27.0,17.8,30.28,WNW,293,0.7,1.1,68,0.00,,,0.07,WUHU216HW,2013-03-06 04:15:00,
2013-03-05 21:20:00,26.8,18.0,30.29,WNW,293,0.0,1.1,69,0.00,,,0.07,WUHU216HW,2013-03-06 04:20:00,
2013-03-05 21:25:00,26.8,17.6,30.29,WNW,293,0.0,0.2,68,0.00,,,0.07,WUHU216HW,2013-03-06 04:25:00,
2013-03-05 21:30:00,26.8,19.0,30.28,WNW,293,0.0,0.4,72,0.00,,,0.07,WUHU216HW,2013-03-06 04:30:00,
2013-03-05 21:35:00,26.8,18.4,30.28,WNW,293,0.0,0.7,70,0.00,,,0.07,WUHU216HW,2013-03-06 04:35:00,
2013-03-05 21:40:00,26.8,18.4,30.29,WNW,293,0.0,0.7,70,0.00,,,0.07,WUHU216HW,2013-03-06 04:40:00,
2013-03-05 21:45:00,26.6,17.8,30.29,WNW,293,1.3,1.3,69,0.00,,,0.07,WUHU216HW,2013-03-06 04:45:00,
2013-03-05 21:50:00,26.5,18.0,30.28,WNW,293,0.0,1.3,70,0.00,,,0.07,WUHU216HW,2013-03-06 04:50:00,
2013-03-05 21:55:00,26.5,18.3,30.28,WNW,293,0.0,1.3,71,0.00,,,0.07,WUHU216HW,2013-03-06 04:55:00,
2013-03-05 22:00:00,26.5,18.0,30.28,WNW,293,0.0,0.2,70,0.00,,,0.07,WUHU216HW,2013-03-06 05:00:00,
2013-03-05 22:05:00,26.3,17.8,30.28,WNW,293,1.1,1.1,70,0.00,,,0.07,WUHU216HW,2013-03-06 05:05:00,
2013-03-05 22:10:00,26.1,18.3,30.28,WNW,293,0.0,1.1,72,0.00,,,0.07,WUHU216HW,2013-03-06 05:10:00,
2013-03-05 22:15:00,26.1,18.3,30.28,WNW,293,0.0,0.2,72,0.00,,,0.07,WUHU216HW,2013-03-06 05:15:00,
2013-03-05 22:20:00,26.1,18.3,30.28,WNW,293,0.0,0.4,72,0.00,,,0.07,WUHU216HW,2013-03-06 05:20:00,
2013-03-05 22:25:00,25.9,17.7,30.27,WNW,293,1.1,1.1,71,0.00,,,0.07,WUHU216HW,2013-03-06 05:25:00,
2013-03-05 22:30:00,25.7,17.3,30.27,WNW,293,0.0,1.1,70,0.00,,,0.07,WUHU216HW,2013-03-06 05:30:00,
2013-03-05 22:35:00,25.6,17.1,30.27,WNW,293,0.0,0.0,70,0.00,,,0.07,WUHU216HW,2013-03-06 05:35:00,
2013-03-05 22:40:00,25.4,16.9,30.27,WNW,293,0.0,0.0,70,0.00,,,0.07,WUHU216HW,2013-03-06 05:40:00,
2013-03-05 22:45:00,25.2,16.7,30.27,WNW,293,0.0,0.0,70,0.00,,,0.07,WUHU216HW,2013-03-06 05:45:00,
2013-03-05 22:50:00,25.0,16.6,30.27,WNW,293,0.0,0.0,70,0.00,,,0.07,WUHU216HW,2013-03-06 05:50:00,
2013-03-05 22:55:00,24.8,16.4,30.27,WNW,293,0.0,0.0,70,0.00,,,0.07,WUHU216HW,2013-03-06 05:55:00,
2013-03-05 23:00:00,24.8,16.4,30.27,WNW,293,0.0,0.0,70,0.00,,,0.07,WUHU216HW,2013-03-06 06:00:00,
2013-03-05 23:05:00,24.7,16.2,30.27,WNW,293,0.0,0.0,70,0.00,,,0.07,WUHU216HW,2013-03-06 06:05:00,
2013-03-05 23:10:00,24.5,16.4,30.27,WNW,293,0.0,0.0,71,0.00,,,0.07,WUHU216HW,2013-03-06 06:10:00,
2013-03-05 23:15:00,24.5,16.4,30.27,WNW,293,0.0,0.0,71,0.00,,,0.07,WUHU216HW,2013-03-06 06:15:00,
2013-03-05 23:20:00,24.1,15.8,30.27,WNW,293,0.0,0.0,70,0.00,,,0.07,WUHU216HW,2013-03-06 06:20:00,
2013-03-05 23:25:00,24.1,16.4,30.26,WNW,293,0.0,0.0,72,0.00,,,0.07,WUHU216HW,2013-03-06 06:25:00,
2013-03-05 23:30:00,23.9,16.2,30.26,WNW,293,0.0,0.0,72,0.00,,,0.07,WUHU216HW,2013-03-06 06:30:00,
2013-03-05 23:35:00,23.9,16.2,30.26,WNW,293,0.0,0.0,72,0.00,,,0.07,WUHU216HW,2013-03-06 06:35:00,
2013-03-05 23:40:00,23.8,16.0,30.26,WNW,293,0.0,0.0,72,0.00,,,0.07,WUHU216HW,2013-03-06 06:40:00,
2013-03-05 23:45:00,23.6,15.8,30.26,WNW,293,0.0,0.7,72,0.00,,,0.07,WUHU216HW,2013-03-06 06:45:00,
2013-03-05 23:50:00,23.4,16.0,30.26,WNW,293,0.0,0.7,73,0.00,,,0.07,WUHU216HW,2013-03-06 06:50:00,
2013-03-05 23:55:00,23.4,16.0,30.26,WNW,293,0.0,0.2,73,0.00,,,0.07,WUHU216HW,2013-03-06 06:55:00,